Archival Weather

Pocono Mountains Rgnl

Mount Pocono, Pennsylvania (KMPO)

Report from: Tuesday, May 21, 2024 10:53 AM EDT
Current time: Thursday, July 18, 2024 11:33 PM EDT

Current weather – Weather history – Daily summaries
Weather forecast

Temperature23.9°C (75.0°F)
Dew point13.3°C (55.9°F)
Winds 6 kts (3.1 m/s, 6.9 mph) West-Southwest (250°)
Visibility10 mi. (16.1 km)
Clouds Sky clear
Altimeter30.04 in.Hg (1017 mB)
Relative humidity52 %
Density altitude1,147 ft. (350 m)
Sea-level pressure101.6 kPa (1016 mB, 30.01 in.Hg)
Remarks Fully automated report
Automated weather observing station with precipitation discriminator
Pressure falling more quickly
Flight conditions Visual Meteorological Conditions
Raw dataKMPO 211453Z AUTO 25006KT 10SM CLR 24/13 A3004 RMK AO2 SLP162 T02390133 58002
An error has occurred. This application may no longer respond until reloaded. Reload 🗙